createdAt,value
2022-09-28T00:06:47.423Z,1.00
2022-09-28T00:16:52.506Z,3.53
2022-09-28T00:26:56.325Z,5.20
2022-09-28T00:36:58.494Z,2.55
2022-09-28T00:47:18.286Z,3.92
2022-09-28T00:57:22.977Z,0.98
2022-09-28T01:07:25.964Z,0.98
2022-09-28T01:18:22.369Z,2.08
2022-09-28T01:28:27.360Z,0.85
2022-09-28T01:38:34.539Z,1.02
2022-09-28T01:48:43.762Z,2.55
2022-09-28T01:58:51.926Z,1.85
2022-09-28T02:08:59.546Z,3.55
2022-09-28T02:19:04.388Z,5.40
2022-09-28T02:29:06.085Z,3.35
2022-09-28T02:39:17.998Z,3.13
2022-09-28T02:49:50.019Z,2.00
2022-09-28T03:00:00.351Z,0.70
2022-09-28T03:10:08.860Z,0.95
2022-09-28T03:20:12.064Z,1.25
2022-09-28T03:40:15.611Z,3.80
2022-09-28T03:50:17.481Z,3.05
2022-09-28T04:00:19.415Z,3.38
2022-09-28T04:10:21.068Z,1.38
2022-09-28T04:20:22.847Z,6.50
2022-09-28T04:30:24.950Z,1.70
2022-09-28T04:40:26.598Z,1.67
2022-09-28T04:50:28.410Z,3.03
2022-09-28T05:00:33.181Z,5.28
2022-09-28T05:10:42.251Z,3.60
2022-09-28T05:20:43.944Z,3.10
2022-09-28T05:30:45.686Z,7.72
2022-09-28T05:40:48.928Z,2.95
2022-09-28T05:50:52.501Z,5.55
2022-09-28T06:00:56.409Z,6.82
2022-09-28T06:11:03.013Z,3.35
2022-09-28T06:21:05.976Z,6.00
2022-09-28T06:31:08.195Z,8.75
2022-09-28T06:41:11.899Z,1.20
2022-09-28T06:51:14.666Z,1.60
2022-09-28T07:01:17.362Z,6.40
2022-09-28T07:11:27.354Z,4.40
2022-09-28T07:21:30.646Z,2.92
2022-09-28T07:31:33.817Z,1.63
2022-09-28T07:41:36.260Z,4.60
2022-09-28T07:51:37.883Z,4.65
2022-09-28T08:01:39.634Z,5.95
2022-09-28T08:11:43.995Z,12.85
2022-09-28T08:21:45.625Z,5.05
2022-09-28T08:31:48.609Z,2.70
2022-09-28T08:42:00.123Z,5.57
2022-09-28T08:52:17.240Z,2.77
2022-09-28T09:02:34.183Z,1.55
2022-09-28T09:13:00.831Z,1.85
2022-09-28T09:23:15.437Z,3.22
2022-09-28T09:33:39.773Z,1.83
2022-09-28T09:44:06.014Z,2.35
2022-09-28T09:54:20.147Z,2.05
2022-09-28T10:04:27.981Z,2.47
2022-09-28T10:14:31.697Z,1.30
2022-09-28T10:24:45.291Z,1.67
2022-09-28T10:34:50.276Z,3.70
2022-09-28T10:44:59.499Z,1.70
2022-09-28T10:55:01.565Z,2.95
2022-09-28T11:05:06.684Z,4.10
2022-09-28T11:15:27.390Z,3.42
2022-09-28T11:25:31.418Z,9.63
2022-09-28T11:36:00.243Z,3.85
2022-09-28T11:46:10.850Z,1.67
2022-09-28T11:56:27.778Z,1.17
2022-09-28T12:06:41.040Z,2.28
2022-09-28T12:17:08.484Z,1.10
2022-09-28T12:27:18.245Z,2.83
2022-09-28T12:37:41.814Z,2.20
2022-09-28T12:47:57.419Z,4.30
2022-09-28T12:58:03.322Z,1.73
2022-09-28T13:08:42.472Z,0.95
2022-09-28T13:18:53.374Z,1.02
2022-09-28T13:29:04.460Z,6.20
2022-09-28T13:39:37.371Z,4.13
2022-09-28T13:49:40.360Z,4.68
2022-09-28T13:59:50.955Z,1.27
2022-09-28T14:10:21.127Z,1.00
2022-09-28T14:20:27.981Z,1.53
2022-09-28T14:30:41.866Z,1.38
2022-09-28T14:41:10.531Z,3.92
2022-09-28T14:51:42.459Z,0.63
2022-09-28T15:01:57.854Z,3.20
2022-09-28T15:12:21.745Z,0.70
2022-09-28T15:22:24.970Z,2.00
2022-09-28T15:32:31.844Z,2.85
2022-09-28T15:42:37.072Z,1.75
2022-09-28T15:53:17.534Z,1.80
2022-09-28T16:03:21.832Z,1.88
2022-09-28T16:13:25.066Z,1.55
2022-09-28T16:23:34.443Z,1.02
2022-09-28T16:33:54.227Z,3.10
2022-09-28T16:44:15.354Z,3.17
2022-09-28T16:54:43.186Z,3.65
2022-09-28T17:04:47.688Z,3.92
2022-09-28T17:14:49.577Z,3.28
2022-09-28T17:24:51.543Z,5.00
2022-09-28T17:35:06.467Z,3.90
2022-09-28T17:45:10.555Z,5.20
2022-09-28T17:55:16.307Z,4.05
2022-09-28T18:05:19.682Z,5.05
2022-09-28T18:15:22.734Z,4.82
2022-09-28T18:25:24.450Z,6.60
2022-09-28T18:35:26.115Z,6.72
2022-09-28T18:45:27.866Z,5.40
2022-09-28T18:55:30.577Z,4.15
2022-09-28T19:05:33.805Z,3.78
2022-09-28T19:15:35.511Z,5.63
2022-09-28T19:25:38.616Z,6.83
2022-09-28T19:35:41.634Z,8.00
2022-09-28T19:45:43.367Z,9.15
2022-09-28T19:55:51.167Z,9.38
2022-09-28T20:06:01.810Z,7.50
2022-09-28T20:16:09.314Z,7.13
2022-09-28T20:26:11.921Z,8.40
2022-09-28T20:36:16.398Z,8.40
2022-09-28T20:46:19.437Z,7.60
2022-09-28T21:06:27.820Z,5.40
2022-09-28T21:16:31.695Z,5.28
2022-09-28T21:26:33.633Z,6.97
2022-09-28T21:36:35.297Z,7.18
2022-09-28T21:46:39.068Z,5.90
2022-09-28T21:56:40.815Z,5.78
2022-09-28T22:06:42.859Z,9.35
2022-09-28T22:16:47.941Z,9.47
2022-09-28T22:26:55.642Z,10.25
2022-09-28T22:37:03.268Z,8.57
2022-09-28T22:47:07.489Z,7.45
2022-09-28T22:57:09.100Z,7.47
2022-09-28T23:07:10.733Z,8.77
2022-09-28T23:17:12.298Z,8.20
2022-09-28T23:27:15.908Z,10.93
2022-09-28T23:37:17.630Z,14.88
2022-09-28T23:47:19.713Z,8.82
2022-09-28T23:57:21.298Z,10.47
